FR-0218 weather

Centre Hospitalier Heliport
Chamonix, Rhône Alpes, France

Public forecast

Using degrees Celsius for public forecast. Weather courtesy of forecast.io.

METAR (pilot weather report)

Closest report is Aosta Airport, 23.6 nm (43.8 km) ESE. Retrieved 2019/07/23 16:20 UTC (33 minutes ago):

LIMW 231620Z AUTO 11018KT 9999 NCD 33/19 Q1017

TAF (pilot weather forecast)

Closest forecast is Annecy-Haute-Savoie-Mont Blanc Airport, 31.6 nm (58.6 km) W. Retrieved 2019/07/23 15:00 UTC (2 hours ago):

TAF LFLP 231400Z 2315/2415 25005KT CAVOK TEMPO 2320/2413 VRB02KT BECMG 2413/2415 36006KT